Time;durP1;ratioP1;P1;durP2;ratioP2;P2;SDS_P1;SDS_P2;PMS_P1;PMS_P2;Temp;Humidity;BMP_temperature;BMP_pressure;BME280_temperature;BME280_humidity;BME280_pressure;Samples;Min_cycle;Max_cycle;Signal;HPM_P1;HPM_P2
2023/08/10 00:01:48;;;;;;;1.93;1.70;;;17.30;99.90;;;;;;5014472;28;20220;-70
2023/08/10 00:04:14;;;;;;;1.90;1.73;;;17.20;99.90;;;;;;5000987;28;20248;-71
2023/08/10 00:06:39;;;;;;;8.43;1.90;;;17.20;99.90;;;;;;5032506;28;20224;-72
2023/08/10 00:09:07;;;;;;;2.03;1.77;;;17.20;99.90;;;;;;4998698;28;20220;-72
2023/08/10 00:11:33;;;;;;;1.90;1.77;;;17.30;99.90;;;;;;5018327;28;20796;-71
2023/08/10 00:13:59;;;;;;;1.97;1.57;;;17.30;99.90;;;;;;5002099;28;20470;-71
2023/08/10 00:16:24;;;;;;;1.60;1.50;;;17.30;99.90;;;;;;5019244;28;20470;-69
2023/08/10 00:18:51;;;;;;;2.13;1.60;;;17.30;99.90;;;;;;5018979;28;20215;-72
2023/08/10 00:21:16;;;;;;;2.57;2.37;;;17.30;99.90;;;;;;4998921;28;20834;-72
2023/08/10 00:23:42;;;;;;;4.63;2.47;;;17.30;99.90;;;;;;5019034;28;20459;-71
2023/08/10 00:26:08;;;;;;;2.73;2.50;;;17.20;99.90;;;;;;5021285;28;20703;-70
2023/08/10 00:28:34;;;;;;;2.70;2.10;;;17.20;99.90;;;;;;5020830;28;20251;-71
2023/08/10 00:31:00;;;;;;;5.53;2.00;;;17.20;99.90;;;;;;5015904;28;20323;-72
2023/08/10 00:33:26;;;;;;;2.27;1.93;;;17.10;99.90;;;;;;5005906;28;20462;-71
2023/08/10 00:35:51;;;;;;;3.57;1.97;;;16.90;99.90;;;;;;5002627;28;21083;-72
2023/08/10 00:38:17;;;;;;;1.93;1.73;;;16.80;99.90;;;;;;5020690;28;20223;-72
2023/08/10 00:40:43;;;;;;;3.20;1.97;;;16.90;99.90;;;;;;5003721;28;20783;-71
2023/08/10 00:43:10;;;;;;;3.00;2.40;;;16.90;99.90;;;;;;5003490;28;20815;-71
2023/08/10 00:45:37;;;;;;;3.33;2.07;;;16.90;99.90;;;;;;5036182;28;20235;-72
2023/08/10 00:48:03;;;;;;;2.60;1.70;;;16.90;99.90;;;;;;5038222;28;20462;-70
2023/08/10 00:50:29;;;;;;;2.73;2.53;;;16.90;99.90;;;;;;5002400;28;20470;-71
2023/08/10 00:52:55;;;;;;;2.60;2.40;;;16.90;99.90;;;;;;5016281;28;20224;-72
2023/08/10 00:55:21;;;;;;;2.00;1.80;;;16.90;99.90;;;;;;4983674;28;20458;-70
2023/08/10 00:57:47;;;;;;;3.30;2.30;;;16.80;99.90;;;;;;4999918;28;20293;-72
2023/08/10 01:00:14;;;;;;;4.40;2.03;;;16.60;99.90;;;;;;5000092;28;20240;-71
2023/08/10 01:02:40;;;;;;;2.30;2.10;;;16.70;99.90;;;;;;4999610;28;20225;-71
2023/08/10 01:05:08;;;;;;;2.97;2.10;;;16.70;99.90;;;;;;4999840;28;20487;-71
2023/08/10 01:07:52;;;;;;;3.30;2.00;;;16.80;99.90;;;;;;5015541;28;20488;-71
2023/08/10 01:11:09;;;;;;;2.73;2.00;;;16.80;99.90;;;;;;5030358;28;20487;-71
2023/08/10 01:13:49;;;;;;;1.93;1.80;;;16.80;99.90;;;;;;4958308;28;20497;-72
2023/08/10 01:16:16;;;;;;;3.13;2.10;;;16.80;99.90;;;;;;5007253;28;20561;-73
2023/08/10 01:18:42;;;;;;;2.00;1.90;;;16.80;99.90;;;;;;5032821;28;21213;-72
2023/08/10 01:21:35;;;;;;;2.30;2.10;;;16.80;99.90;;;;;;5021694;28;20464;-72
2023/08/10 01:24:10;;;;;;;2.67;2.30;;;16.70;99.90;;;;;;5021592;28;20469;-70
2023/08/10 01:26:36;;;;;;;2.40;1.80;;;16.70;99.90;;;;;;5023033;28;20465;-72
2023/08/10 01:29:02;;;;;;;2.43;2.23;;;16.70;99.90;;;;;;5018226;28;21156;-70
2023/08/10 01:31:28;;;;;;;2.03;1.90;;;16.60;99.90;;;;;;5035054;28;20685;-71
2023/08/10 01:33:54;;;;;;;2.33;2.13;;;16.60;99.90;;;;;;5015990;28;20457;-72
2023/08/10 01:36:20;;;;;;;2.97;2.10;;;16.60;99.90;;;;;;5020833;28;20565;-71
2023/08/10 01:38:46;;;;;;;3.13;2.83;;;16.60;99.90;;;;;;5015803;28;20474;-71
2023/08/10 01:41:12;;;;;;;2.10;1.90;;;16.60;99.90;;;;;;4997825;28;20249;-72
2023/08/10 01:43:38;;;;;;;2.13;2.00;;;16.60;99.90;;;;;;5032701;28;21265;-72
2023/08/10 01:46:04;;;;;;;2.90;2.70;;;16.60;99.90;;;;;;5013812;28;20251;-71
2023/08/10 01:48:33;;;;;;;2.20;2.00;;;16.50;99.90;;;;;;5032831;28;20231;-70
2023/08/10 01:51:02;;;;;;;3.63;2.43;;;16.50;99.90;;;;;;4996571;28;20591;-73
2023/08/10 01:53:32;;;;;;;2.20;2.00;;;16.50;99.90;;;;;;5000494;28;20927;-70
2023/08/10 01:55:58;;;;;;;3.57;2.73;;;16.50;99.90;;;;;;5002145;28;20466;-72
2023/08/10 01:58:24;;;;;;;2.40;2.20;;;16.50;99.90;;;;;;5019287;28;20640;-71
2023/08/10 02:00:51;;;;;;;1.93;1.70;;;16.50;99.90;;;;;;5035492;28;20458;-71
2023/08/10 02:03:18;;;;;;;1.90;1.80;;;16.50;99.90;;;;;;5019827;28;20459;-70
2023/08/10 02:05:44;;;;;;;2.10;1.90;;;16.40;99.90;;;;;;5020134;28;21119;-70
2023/08/10 02:08:11;;;;;;;2.60;2.17;;;16.40;99.90;;;;;;4984853;28;20467;-71
2023/08/10 02:10:36;;;;;;;1.80;1.70;;;16.40;99.90;;;;;;5002083;28;20478;-70
2023/08/10 02:13:02;;;;;;;3.00;2.40;;;16.40;99.90;;;;;;5001160;28;20235;-72
2023/08/10 02:15:28;;;;;;;2.10;1.90;;;16.40;99.90;;;;;;4988700;28;20343;-71
2023/08/10 02:17:55;;;;;;;2.60;2.43;;;16.40;99.90;;;;;;5003604;28;20230;-72
2023/08/10 02:20:21;;;;;;;2.27;2.07;;;16.40;99.90;;;;;;5005069;28;20467;-70
2023/08/10 02:22:52;;;;;;;2.83;2.53;;;16.40;99.90;;;;;;5002998;28;20661;-72
2023/08/10 02:25:22;;;;;;;3.93;2.40;;;16.40;99.90;;;;;;5022545;28;20796;-71
2023/08/10 02:27:50;;;;;;;2.40;2.10;;;16.40;99.90;;;;;;5020709;28;20455;-72
2023/08/10 02:30:17;;;;;;;3.13;2.07;;;16.40;99.90;;;;;;5037380;28;20467;-71
2023/08/10 02:32:42;;;;;;;2.70;2.00;;;16.40;99.90;;;;;;5004597;28;20462;-70
2023/08/10 02:35:09;;;;;;;2.83;2.57;;;16.30;99.90;;;;;;5020598;28;20483;-71
2023/08/10 02:37:35;;;;;;;6.47;1.90;;;16.40;99.90;;;;;;5004482;28;20212;-71
2023/08/10 02:40:04;;;;;;;2.10;2.00;;;16.40;99.90;;;;;;5004313;28;20474;-70
2023/08/10 02:42:30;;;;;;;1.87;1.67;;;16.40;99.90;;;;;;5003980;28;20535;-71
2023/08/10 02:44:56;;;;;;;2.87;2.50;;;16.30;99.90;;;;;;5001990;28;20495;-70
2023/08/10 02:47:22;;;;;;;2.40;1.97;;;16.30;99.90;;;;;;5021490;28;20224;-71
2023/08/10 02:49:48;;;;;;;2.20;2.00;;;16.30;99.90;;;;;;5002844;28;20463;-71
2023/08/10 02:52:14;;;;;;;2.07;1.87;;;16.30;99.90;;;;;;5036375;28;20959;-71
2023/08/10 02:54:39;;;;;;;2.87;2.13;;;16.20;99.90;;;;;;5005369;28;20465;-71
2023/08/10 02:57:05;;;;;;;2.63;2.43;;;16.20;99.90;;;;;;5003891;28;20819;-71
2023/08/10 02:59:31;;;;;;;2.57;2.37;;;16.20;99.90;;;;;;5020407;28;20889;-71
2023/08/10 03:01:57;;;;;;;2.83;2.13;;;16.30;99.90;;;;;;5000044;28;20228;-71
2023/08/10 03:04:22;;;;;;;2.90;2.33;;;16.30;99.90;;;;;;5019775;28;20342;-71
2023/08/10 03:06:49;;;;;;;1.90;1.80;;;16.30;99.90;;;;;;5001793;28;20223;-71
2023/08/10 03:09:15;;;;;;;2.47;2.10;;;16.30;99.90;;;;;;5020208;28;20820;-72
2023/08/10 03:11:40;;;;;;;2.33;1.90;;;16.30;99.90;;;;;;5002029;28;20511;-71
2023/08/10 03:14:06;;;;;;;2.17;1.80;;;16.30;99.90;;;;;;5018776;28;21238;-72
2023/08/10 03:16:32;;;;;;;2.70;2.50;;;16.30;99.90;;;;;;5021599;28;20262;-71
2023/08/10 03:18:58;;;;;;;1.90;1.80;;;16.20;99.90;;;;;;5001478;28;20225;-71
2023/08/10 03:21:24;;;;;;;2.43;2.00;;;16.20;99.90;;;;;;5017566;28;20289;-71
2023/08/10 03:23:50;;;;;;;2.90;2.40;;;16.20;99.90;;;;;;5019354;28;20585;-71
2023/08/10 03:26:15;;;;;;;2.57;2.37;;;16.20;99.90;;;;;;5000029;28;20701;-72
2023/08/10 03:28:42;;;;;;;3.10;2.00;;;16.20;99.90;;;;;;5019417;28;20247;-71
2023/08/10 03:31:11;;;;;;;2.33;2.10;;;16.10;99.90;;;;;;5002202;28;20468;-71
2023/08/10 03:33:38;;;;;;;2.47;2.27;;;16.10;99.90;;;;;;5037426;28;20220;-72
2023/08/10 03:36:03;;;;;;;2.53;2.33;;;16.10;99.90;;;;;;5004055;28;20471;-72
2023/08/10 03:38:29;;;;;;;2.83;2.63;;;16.00;99.90;;;;;;5017469;28;20480;-70
2023/08/10 03:40:55;;;;;;;5.00;3.10;;;16.00;99.90;;;;;;5035238;28;20222;-71
2023/08/10 03:43:21;;;;;;;2.90;2.70;;;16.00;99.90;;;;;;5003687;28;20933;-70
2023/08/10 03:45:46;;;;;;;3.40;2.83;;;16.00;99.90;;;;;;5033630;28;20226;-71
2023/08/10 03:48:12;;;;;;;3.03;2.73;;;15.80;99.90;;;;;;5003295;28;20937;-71
2023/08/10 03:50:38;;;;;;;2.60;2.40;;;15.60;99.90;;;;;;5003586;28;20217;-72
2023/08/10 03:53:04;;;;;;;2.87;2.63;;;15.40;99.90;;;;;;5017172;28;20216;-72
2023/08/10 03:55:30;;;;;;;3.10;2.60;;;15.50;99.90;;;;;;5020121;28;20220;-71
2023/08/10 03:57:56;;;;;;;5.40;3.10;;;15.50;99.90;;;;;;5020773;28;20290;-70
2023/08/10 04:00:22;;;;;;;5.80;2.50;;;15.50;99.90;;;;;;4985896;28;20459;-70
2023/08/10 04:02:48;;;;;;;3.50;2.90;;;15.60;99.90;;;;;;5015330;28;20231;-71
2023/08/10 04:05:19;;;;;;;3.53;2.60;;;15.60;99.90;;;;;;4994958;28;20234;-70
2023/08/10 04:07:45;;;;;;;2.67;2.47;;;15.50;99.90;;;;;;5003841;28;20477;-71
2023/08/10 04:10:11;;;;;;;2.90;2.70;;;15.30;99.90;;;;;;5001268;28;20457;-71
2023/08/10 04:12:38;;;;;;;3.23;2.93;;;15.40;99.90;;;;;;5036506;28;20463;-72
2023/08/10 04:15:08;;;;;;;3.00;2.70;;;15.50;99.90;;;;;;4984992;28;20221;-71
2023/08/10 04:17:35;;;;;;;3.53;2.67;;;15.60;99.90;;;;;;5019876;28;20463;-71
2023/08/10 04:20:01;;;;;;;2.97;2.77;;;15.70;99.90;;;;;;5034648;28;20458;-71
2023/08/10 04:22:27;;;;;;;2.50;2.30;;;15.80;99.90;;;;;;5017762;28;20919;-71
2023/08/10 04:24:52;;;;;;;3.90;2.90;;;15.90;99.90;;;;;;5017445;28;20800;-71
2023/08/10 04:27:18;;;;;;;2.70;2.50;;;15.90;99.90;;;;;;4994729;28;20274;-71
2023/08/10 04:29:44;;;;;;;2.60;2.40;;;15.90;99.90;;;;;;5003549;28;20212;-70
2023/08/10 04:32:13;;;;;;;3.03;2.83;;;16.00;99.90;;;;;;5003505;28;20331;-72
2023/08/10 04:34:39;;;;;;;2.40;2.20;;;16.00;99.90;;;;;;5031973;28;20548;-72
2023/08/10 04:37:05;;;;;;;3.70;2.80;;;16.00;99.90;;;;;;5004723;28;20477;-70
2023/08/10 04:39:32;;;;;;;4.23;3.27;;;16.00;99.90;;;;;;5027867;28;20477;-72
2023/08/10 04:41:58;;;;;;;2.33;2.13;;;16.00;99.90;;;;;;5032189;28;20521;-72
2023/08/10 04:44:24;;;;;;;2.17;1.97;;;16.00;99.90;;;;;;5021732;28;20465;-72
2023/08/10 04:46:50;;;;;;;4.97;2.60;;;16.00;99.90;;;;;;5038768;28;20469;-71
2023/08/10 04:49:16;;;;;;;2.90;2.70;;;16.00;99.90;;;;;;5017541;28;20480;-70
2023/08/10 04:51:42;;;;;;;2.90;2.70;;;16.00;99.90;;;;;;5034444;28;20228;-70
2023/08/10 04:54:08;;;;;;;3.23;2.67;;;16.00;99.90;;;;;;4983591;28;20220;-71
2023/08/10 04:56:35;;;;;;;2.77;2.57;;;16.00;99.90;;;;;;5001782;28;20470;-72
2023/08/10 04:59:02;;;;;;;2.80;2.60;;;16.00;99.90;;;;;;5017539;28;20476;-71
2023/08/10 05:01:28;;;;;;;4.40;3.00;;;16.00;99.90;;;;;;5005703;28;20480;-72
2023/08/10 05:03:54;;;;;;;4.27;2.67;;;16.00;99.90;;;;;;5023557;28;20485;-71
2023/08/10 05:06:20;;;;;;;3.10;2.80;;;16.00;99.90;;;;;;5005579;28;20569;-72
2023/08/10 05:08:45;;;;;;;5.17;3.03;;;16.00;99.90;;;;;;5003397;28;20797;-72
2023/08/10 05:11:11;;;;;;;3.37;3.07;;;16.00;99.90;;;;;;5020623;28;20359;-71
2023/08/10 05:13:37;;;;;;;3.00;2.73;;;16.00;99.90;;;;;;5021837;28;20378;-70
2023/08/10 05:16:03;;;;;;;2.97;2.47;;;16.00;99.90;;;;;;5035491;28;20232;-70
2023/08/10 05:18:30;;;;;;;3.00;2.80;;;16.00;99.90;;;;;;5005497;28;20239;-71
2023/08/10 05:21:00;;;;;;;4.40;2.87;;;16.00;99.90;;;;;;5019572;28;20466;-72
2023/08/10 05:23:25;;;;;;;3.13;2.67;;;16.10;99.90;;;;;;5022001;28;20234;-71
2023/08/10 05:25:51;;;;;;;2.83;2.50;;;16.10;99.90;;;;;;5021898;28;20475;-70
2023/08/10 05:28:17;;;;;;;3.20;2.90;;;16.10;99.90;;;;;;5002423;28;20220;-69
2023/08/10 05:30:43;;;;;;;3.43;3.13;;;16.10;99.90;;;;;;5006328;28;20224;-71
2023/08/10 05:33:09;;;;;;;3.20;2.90;;;16.00;99.90;;;;;;5003404;28;20992;-71
2023/08/10 05:35:34;;;;;;;2.87;2.67;;;16.10;99.90;;;;;;5006459;28;20561;-70
2023/08/10 05:38:00;;;;;;;3.30;2.90;;;16.10;99.90;;;;;;5035377;28;20220;-71
2023/08/10 05:40:26;;;;;;;5.83;3.07;;;16.10;99.90;;;;;;5004686;28;20216;-71
2023/08/10 05:42:52;;;;;;;3.57;3.17;;;16.10;99.90;;;;;;5020889;28;20219;-71
2023/08/10 05:45:19;;;;;;;2.90;2.70;;;16.10;99.90;;;;;;5006537;28;20796;-70
2023/08/10 05:47:46;;;;;;;3.47;3.17;;;16.10;99.90;;;;;;5023658;28;20220;-71
2023/08/10 05:50:15;;;;;;;4.23;3.20;;;16.10;99.90;;;;;;5018530;28;20463;-71
2023/08/10 05:52:42;;;;;;;3.47;3.17;;;16.10;99.90;;;;;;5005229;28;20555;-70
2023/08/10 05:55:08;;;;;;;2.77;2.57;;;16.10;99.90;;;;;;5021593;28;20454;-71
2023/08/10 05:57:34;;;;;;;4.27;3.13;;;16.10;99.90;;;;;;5005743;28;20526;-70
2023/08/10 06:00:00;;;;;;;2.73;2.53;;;16.10;99.90;;;;;;5038503;28;20223;-71
2023/08/10 06:02:26;;;;;;;2.30;2.20;;;16.10;99.90;;;;;;5005722;28;20252;-71
2023/08/10 06:04:52;;;;;;;3.30;2.40;;;16.10;99.90;;;;;;4994505;28;20224;-71
2023/08/10 06:07:18;;;;;;;3.37;2.60;;;16.10;99.90;;;;;;5022652;28;20495;-72
2023/08/10 06:09:44;;;;;;;2.80;2.50;;;16.20;99.90;;;;;;5037846;28;20244;-71
2023/08/10 06:12:10;;;;;;;3.13;2.83;;;16.20;99.90;;;;;;5000396;28;20315;-72
2023/08/10 06:14:37;;;;;;;3.17;2.87;;;16.20;99.90;;;;;;5022538;28;20283;-71
2023/08/10 06:17:04;;;;;;;2.73;2.53;;;16.20;99.90;;;;;;5017730;28;21051;-71
2023/08/10 06:19:31;;;;;;;3.00;2.70;;;16.20;99.90;;;;;;5005062;28;20574;-71
2023/08/10 06:21:57;;;;;;;3.20;2.90;;;16.20;99.90;;;;;;5004594;28;20478;-71
2023/08/10 06:24:22;;;;;;;6.30;2.93;;;16.20;99.90;;;;;;5021514;28;20490;-72
2023/08/10 06:26:49;;;;;;;3.30;2.97;;;16.10;99.90;;;;;;5022817;28;20678;-72
2023/08/10 06:29:15;;;;;;;3.40;3.10;;;16.10;99.90;;;;;;5002629;28;20225;-71
2023/08/10 06:31:41;;;;;;;2.80;2.60;;;16.20;99.90;;;;;;5036672;28;20471;-71
2023/08/10 06:34:06;;;;;;;3.93;2.77;;;16.20;99.90;;;;;;5020978;28;20501;-72
2023/08/10 06:36:33;;;;;;;3.10;2.90;;;16.30;99.90;;;;;;5019895;28;20220;-71
2023/08/10 06:38:59;;;;;;;3.37;3.03;;;16.30;99.90;;;;;;5003154;28;20220;-73
2023/08/10 06:41:25;;;;;;;3.30;3.10;;;16.30;99.90;;;;;;5003974;28;21093;-71
2023/08/10 06:43:50;;;;;;;3.70;3.30;;;16.30;99.90;;;;;;5022031;28;20355;-71
2023/08/10 06:46:16;;;;;;;3.87;2.97;;;16.30;99.90;;;;;;4987831;28;20231;-72
2023/08/10 06:48:42;;;;;;;3.93;3.60;;;16.40;99.90;;;;;;5021472;28;20216;-73
2023/08/10 06:51:07;;;;;;;3.70;3.20;;;16.40;99.90;;;;;;5018777;28;20243;-72
2023/08/10 06:53:33;;;;;;;5.03;3.47;;;16.30;99.90;;;;;;5021931;28;20233;-71
2023/08/10 06:55:59;;;;;;;3.67;3.20;;;16.30;99.90;;;;;;5019385;28;20220;-71
2023/08/10 06:58:25;;;;;;;3.43;3.13;;;16.40;99.90;;;;;;5004452;28;20271;-72
2023/08/10 07:00:51;;;;;;;3.50;3.20;;;16.40;99.90;;;;;;5018960;28;20458;-72
2023/08/10 07:03:16;;;;;;;7.90;3.00;;;16.50;99.90;;;;;;5003980;28;20301;-71
2023/08/10 07:05:43;;;;;;;2.90;2.70;;;16.60;99.90;;;;;;5005441;28;20828;-71
2023/08/10 07:08:09;;;;;;;2.77;2.57;;;16.60;99.90;;;;;;5019571;28;20258;-71
2023/08/10 07:10:36;;;;;;;3.00;2.80;;;16.60;99.90;;;;;;5019221;28;20477;-70
2023/08/10 07:13:02;;;;;;;3.07;2.77;;;16.70;99.90;;;;;;5004384;28;20470;-71
2023/08/10 07:15:28;;;;;;;3.13;2.77;;;16.70;99.90;;;;;;5022398;28;20551;-72
2023/08/10 07:17:54;;;;;;;5.23;3.50;;;16.80;99.90;;;;;;5034517;28;20227;-72
2023/08/10 07:20:20;;;;;;;3.83;3.30;;;16.90;99.90;;;;;;5019472;28;20632;-72
2023/08/10 07:22:47;;;;;;;5.93;3.37;;;16.90;99.90;;;;;;5020083;28;20239;-72
2023/08/10 07:25:16;;;;;;;3.67;3.10;;;17.00;99.90;;;;;;4988358;28;20802;-72
2023/08/10 07:27:43;;;;;;;14.13;3.43;;;17.00;99.90;;;;;;5020803;28;20558;-71
2023/08/10 07:30:10;;;;;;;3.40;2.70;;;17.10;99.90;;;;;;5035964;28;20462;-72
2023/08/10 07:32:36;;;;;;;3.10;2.80;;;17.10;99.90;;;;;;5018113;28;20508;-71
2023/08/10 07:35:02;;;;;;;4.67;2.90;;;17.10;99.90;;;;;;5019486;28;20458;-72
2023/08/10 07:37:30;;;;;;;2.90;2.70;;;17.10;99.90;;;;;;5018344;28;20485;-72
2023/08/10 07:39:56;;;;;;;5.27;3.00;;;17.20;99.90;;;;;;5017977;28;20462;-73
2023/08/10 07:42:22;;;;;;;3.00;2.80;;;17.30;99.90;;;;;;5001582;28;20486;-72
2023/08/10 07:44:48;;;;;;;3.73;3.13;;;17.30;99.90;;;;;;5016835;28;21332;-73
2023/08/10 07:47:13;;;;;;;7.40;2.83;;;17.30;99.90;;;;;;5002341;28;20545;-72
2023/08/10 07:49:45;;;;;;;4.50;2.50;;;17.40;99.90;;;;;;5000620;28;20224;-71
2023/08/10 07:52:10;;;;;;;3.67;2.97;;;17.40;99.90;;;;;;5033225;28;20237;-72
2023/08/10 07:54:36;;;;;;;3.00;2.70;;;17.40;99.90;;;;;;5036332;28;20497;-73
2023/08/10 07:57:02;;;;;;;3.70;3.40;;;17.50;99.90;;;;;;5002963;28;20729;-72
2023/08/10 07:59:28;;;;;;;3.53;2.67;;;17.50;99.90;;;;;;5018391;28;20240;-72
2023/08/10 08:01:53;;;;;;;3.67;2.97;;;17.60;99.90;;;;;;5002177;28;21075;-72
2023/08/10 08:04:19;;;;;;;5.27;3.03;;;17.70;99.90;;;;;;5000972;28;20862;-72
2023/08/10 08:06:45;;;;;;;3.27;2.97;;;17.70;99.90;;;;;;5001608;28;20239;-72
2023/08/10 08:09:12;;;;;;;2.90;2.70;;;17.70;99.90;;;;;;5016382;28;21069;-72
2023/08/10 08:11:38;;;;;;;3.57;2.87;;;17.70;99.90;;;;;;5019909;28;20805;-73
2023/08/10 08:14:04;;;;;;;3.00;2.70;;;17.90;99.90;;;;;;5018621;28;20568;-73
2023/08/10 08:16:30;;;;;;;6.80;3.13;;;18.00;99.90;;;;;;5001578;28;20471;-72
2023/08/10 08:18:55;;;;;;;6.53;3.40;;;18.00;99.90;;;;;;4999951;28;20584;-73
2023/08/10 08:21:26;;;;;;;3.47;3.17;;;18.20;99.90;;;;;;5018284;28;21607;-71
2023/08/10 08:23:54;;;;;;;3.70;2.70;;;18.30;99.90;;;;;;5018146;28;20224;-73
2023/08/10 08:26:23;;;;;;;2.90;2.70;;;18.50;99.90;;;;;;5000528;28;20949;-73
2023/08/10 08:28:50;;;;;;;5.60;4.50;;;18.70;99.90;;;;;;5001479;28;21218;-73
2023/08/10 08:31:16;;;;;;;5.80;3.50;;;18.90;99.90;;;;;;5031853;28;20507;-72
2023/08/10 08:33:42;;;;;;;3.90;3.60;;;19.10;99.90;;;;;;5001818;28;20464;-73
2023/08/10 08:36:08;;;;;;;2.70;2.33;;;19.30;99.90;;;;;;5004556;28;20486;-73
2023/08/10 08:38:36;;;;;;;4.10;3.30;;;19.40;99.90;;;;;;5024255;28;20248;-71
2023/08/10 08:41:07;;;;;;;4.30;3.60;;;19.40;99.90;;;;;;5005790;28;20846;-72
2023/08/10 08:43:34;;;;;;;3.13;2.83;;;19.40;99.90;;;;;;5007705;28;20464;-72
2023/08/10 08:46:01;;;;;;;3.80;3.27;;;19.40;99.90;;;;;;5038876;28;20518;-72
2023/08/10 08:48:27;;;;;;;3.77;2.87;;;19.50;99.90;;;;;;5006803;28;21975;-72
2023/08/10 08:50:54;;;;;;;2.83;2.63;;;19.60;99.90;;;;;;5039798;28;20678;-73
2023/08/10 08:53:20;;;;;;;3.67;3.13;;;19.70;99.90;;;;;;5023830;28;20471;-71
2023/08/10 08:55:46;;;;;;;3.53;3.30;;;19.80;99.90;;;;;;5041120;28;20470;-72
2023/08/10 08:58:16;;;;;;;3.30;3.00;;;19.90;99.90;;;;;;5006173;28;20483;-72
2023/08/10 09:00:52;;;;;;;2.83;2.60;;;20.10;99.90;;;;;;5005275;28;20521;-73
2023/08/10 09:03:25;;;;;;;4.73;3.30;;;20.20;99.90;;;;;;5037867;28;20552;-73
2023/08/10 09:05:52;;;;;;;3.77;3.17;;;20.40;99.90;;;;;;4996830;28;20516;-73
2023/08/10 09:08:19;;;;;;;4.73;3.80;;;20.50;99.90;;;;;;5006786;28;20463;-71
2023/08/10 09:10:46;;;;;;;3.00;2.80;;;20.50;99.90;;;;;;4988885;28;21893;-72
2023/08/10 09:13:17;;;;;;;4.23;3.23;;;20.70;99.90;;;;;;5005976;28;20466;-72
2023/08/10 09:15:43;;;;;;;3.13;2.90;;;21.00;99.90;;;;;;5003637;28;21776;-72
2023/08/10 09:18:09;;;;;;;7.50;2.77;;;21.10;99.90;;;;;;5037235;28;20458;-73
2023/08/10 09:20:35;;;;;;;3.37;3.07;;;21.20;99.90;;;;;;5022919;28;20461;-73
2023/08/10 09:23:01;;;;;;;4.30;3.13;;;21.30;99.90;;;;;;5002635;28;20244;-73
2023/08/10 09:25:35;;;;;;;3.70;2.80;;;21.30;99.90;;;;;;5038535;28;20239;-72
2023/08/10 09:28:00;;;;;;;5.10;3.23;;;21.10;99.90;;;;;;5022458;28;20459;-71
2023/08/10 09:30:26;;;;;;;3.10;2.83;;;21.00;99.90;;;;;;5005815;28;21347;-72
2023/08/10 09:32:51;;;;;;;5.90;2.80;;;21.10;99.90;;;;;;5004004;28;20273;-71
2023/08/10 09:35:19;;;;;;;3.53;2.73;;;21.20;99.90;;;;;;5038804;28;20226;-72
2023/08/10 09:37:48;;;;;;;4.90;2.93;;;21.50;99.90;;;;;;5006942;28;20232;-72
2023/08/10 09:40:15;;;;;;;3.43;3.13;;;21.60;99.90;;;;;;5024117;28;20569;-72
2023/08/10 09:42:41;;;;;;;3.80;3.20;;;22.10;99.90;;;;;;5009575;28;21906;-73
2023/08/10 09:45:10;;;;;;;3.20;2.90;;;22.10;99.90;;;;;;5038276;28;20596;-73
2023/08/10 09:47:41;;;;;;;10.03;3.53;;;22.20;99.90;;;;;;5024345;28;20522;-73
2023/08/10 09:50:09;;;;;;;3.73;3.00;;;22.50;99.90;;;;;;5022747;28;20516;-73
2023/08/10 09:52:36;;;;;;;3.20;2.93;;;22.60;99.90;;;;;;5024860;28;20574;-72
2023/08/10 09:55:04;;;;;;;2.90;2.60;;;22.60;99.90;;;;;;5024063;28;20470;-73
2023/08/10 09:57:29;;;;;;;2.70;2.50;;;22.70;99.90;;;;;;5041946;28;20757;-72
2023/08/10 09:59:55;;;;;;;2.90;2.70;;;22.80;99.90;;;;;;5040376;28;20480;-72
2023/08/10 10:02:23;;;;;;;2.80;2.60;;;23.00;99.90;;;;;;5021755;28;20228;-73
2023/08/10 10:04:49;;;;;;;3.00;2.47;;;23.00;99.90;;;;;;5041038;28;20485;-73
2023/08/10 10:07:21;;;;;;;3.07;2.80;;;22.90;99.90;;;;;;5022670;28;20457;-72
2023/08/10 10:09:49;;;;;;;3.33;2.90;;;23.00;99.90;;;;;;5024068;28;20490;-73
2023/08/10 10:12:15;;;;;;;3.30;3.00;;;23.00;99.90;;;;;;5022720;28;20469;-72
2023/08/10 10:14:44;;;;;;;3.00;2.80;;;23.20;99.90;;;;;;5043106;28;20471;-73
2023/08/10 10:17:11;;;;;;;3.23;2.70;;;23.20;99.90;;;;;;5038735;28;20487;-73
2023/08/10 10:19:38;;;;;;;4.33;3.03;;;23.30;99.90;;;;;;5023028;28;21930;-72
2023/08/10 10:22:04;;;;;;;3.13;2.90;;;23.20;99.90;;;;;;5004691;28;20468;-73
2023/08/10 10:24:33;;;;;;;3.47;3.17;;;23.30;99.90;;;;;;5024364;28;20592;-73
2023/08/10 10:26:59;;;;;;;2.60;2.40;;;23.40;99.90;;;;;;5024051;28;20538;-73
2023/08/10 10:29:36;;;;;;;2.97;2.70;;;23.70;99.90;;;;;;5039824;28;20486;-73
2023/08/10 10:32:21;;;;;;;2.50;2.40;;;24.00;99.90;;;;;;5022410;28;20292;-73
2023/08/10 10:34:51;;;;;;;3.00;2.70;;;24.30;99.90;;;;;;5024310;28;20473;-72
2023/08/10 10:37:35;;;;;;;3.00;2.80;;;24.30;99.90;;;;;;5006139;28;20493;-73
2023/08/10 10:40:14;;;;;;;3.17;2.37;;;24.20;99.90;;;;;;5039815;28;20472;-72
2023/08/10 10:43:02;;;;;;;2.53;2.33;;;24.30;99.90;;;;;;5022159;28;21570;-73
2023/08/10 10:45:29;;;;;;;3.00;2.80;;;24.30;99.90;;;;;;5039289;28;20500;-74
2023/08/10 10:47:55;;;;;;;3.27;2.90;;;24.20;99.90;;;;;;5038707;28;20977;-73
2023/08/10 10:50:40;;;;;;;2.80;2.60;;;23.90;99.90;;;;;;4994403;28;20463;-73
2023/08/10 10:53:05;;;;;;;2.90;2.70;;;23.70;99.90;;;;;;5018346;28;20481;-72
2023/08/10 10:55:34;;;;;;;6.30;3.40;;;23.70;99.90;;;;;;5020548;28;20584;-73
2023/08/10 10:58:04;;;;;;;2.90;2.70;;;23.80;99.90;;;;;;5036175;28;20652;-73
2023/08/10 11:00:32;;;;;;;2.87;2.67;;;23.80;99.90;;;;;;5019140;28;20454;-73
2023/08/10 11:02:58;;;;;;;5.73;2.80;;;24.20;99.90;;;;;;5019744;28;20522;-73
2023/08/10 11:05:24;;;;;;;3.40;2.90;;;24.40;99.90;;;;;;5001667;28;21098;-74
2023/08/10 11:07:51;;;;;;;7.10;2.80;;;24.30;99.90;;;;;;5020836;28;20572;-73
2023/08/10 11:10:21;;;;;;;3.10;2.90;;;24.30;99.90;;;;;;4999835;28;20712;-73
2023/08/10 11:12:48;;;;;;;2.93;2.73;;;24.50;99.90;;;;;;5035094;28;20478;-73
2023/08/10 11:15:16;;;;;;;2.70;2.50;;;24.70;99.90;;;;;;5019202;28;20569;-72
2023/08/10 11:17:47;;;;;;;2.80;2.60;;;24.90;99.90;;;;;;5020649;28;21957;-72
2023/08/10 11:20:18;;;;;;;2.30;2.10;;;25.00;99.90;;;;;;5031858;28;21138;-73
2023/08/10 11:22:45;;;;;;;2.70;2.50;;;25.20;99.90;;;;;;5040106;28;21986;-74
2023/08/10 11:25:24;;;;;;;2.87;2.67;;;25.40;99.90;;;;;;5021118;28;20453;-73
2023/08/10 11:27:52;;;;;;;2.43;2.33;;;25.40;99.90;;;;;;5021846;28;22144;-72
2023/08/10 11:30:21;;;;;;;3.77;2.50;;;25.60;99.90;;;;;;5007501;28;20459;-73
2023/08/10 11:32:49;;;;;;;2.70;2.50;;;25.30;99.90;;;;;;5034850;28;20655;-73
2023/08/10 11:35:19;;;;;;;2.63;2.43;;;25.30;99.90;;;;;;5037998;28;22149;-74
2023/08/10 11:37:45;;;;;;;2.90;2.40;;;25.40;99.90;;;;;;5024351;28;20516;-73
2023/08/10 11:40:22;;;;;;;2.90;2.57;;;25.30;99.90;;;;;;5001609;28;20453;-74
2023/08/10 11:42:52;;;;;;;3.50;3.20;;;25.20;99.90;;;;;;5018451;28;20481;-73
2023/08/10 11:45:23;;;;;;;2.90;2.70;;;25.50;99.90;;;;;;5001645;28;21847;-73
2023/08/10 11:47:57;;;;;;;3.23;2.90;;;25.80;99.90;;;;;;5018659;28;20468;-74
2023/08/10 11:50:25;;;;;;;2.50;2.30;;;26.10;99.90;;;;;;5000095;28;21085;-74
2023/08/10 11:52:53;;;;;;;3.60;2.67;;;26.00;99.90;;;;;;5017152;28;20482;-73
2023/08/10 11:55:20;;;;;;;2.90;2.70;;;25.40;99.90;;;;;;5019153;28;20543;-73
2023/08/10 11:57:54;;;;;;;2.67;2.47;;;24.80;99.90;;;;;;5001971;28;20464;-73
2023/08/10 12:00:30;;;;;;;5.20;2.57;;;25.20;99.90;;;;;;4997196;28;20473;-73
2023/08/10 12:03:25;;;;;;;2.63;2.50;;;25.70;99.90;;;;;;5017604;28;21282;-74
2023/08/10 12:05:53;;;;;;;3.03;2.57;;;25.70;99.90;;;;;;5003237;28;20470;-74
2023/08/10 12:08:30;;;;;;;2.93;2.63;;;25.20;99.90;;;;;;5020943;28;20472;-74
2023/08/10 12:11:03;;;;;;;2.57;2.37;;;25.40;99.90;;;;;;5006692;28;20497;-73
2023/08/10 12:13:28;;;;;;;4.90;2.70;;;25.50;99.90;;;;;;5008579;28;20530;-74
2023/08/10 12:15:55;;;;;;;2.70;2.50;;;25.70;99.90;;;;;;5008444;28;20514;-74
2023/08/10 12:18:22;;;;;;;2.57;2.37;;;25.60;99.90;;;;;;5023022;28;20317;-73
2023/08/10 12:20:53;;;;;;;2.50;2.30;;;25.60;99.90;;;;;;5005512;28;21428;-74
2023/08/10 12:23:20;;;;;;;2.43;2.23;;;25.60;99.90;;;;;;5005981;28;20474;-74
2023/08/10 12:25:47;;;;;;;2.70;2.50;;;25.70;99.90;;;;;;5024466;28;21053;-72
2023/08/10 12:28:14;;;;;;;2.40;2.20;;;25.80;99.90;;;;;;5043120;28;20449;-75
2023/08/10 12:30:41;;;;;;;2.40;2.20;;;25.70;99.90;;;;;;5027092;28;22091;-73
2023/08/10 12:33:08;;;;;;;2.50;2.30;;;25.70;99.90;;;;;;5025364;28;22225;-75
2023/08/10 12:35:34;;;;;;;2.67;2.47;;;26.50;99.90;;;;;;5010685;28;20472;-73
2023/08/10 12:38:00;;;;;;;3.67;2.23;;;26.50;99.90;;;;;;5043801;28;20469;-74
2023/08/10 12:40:26;;;;;;;2.63;2.43;;;26.70;99.90;;;;;;5007862;28;20242;-75
2023/08/10 12:42:51;;;;;;;2.30;2.10;;;26.60;99.90;;;;;;5025827;28;20219;-73
2023/08/10 12:45:17;;;;;;;2.03;1.83;;;26.80;99.90;;;;;;5025920;28;20242;-74
2023/08/10 12:47:44;;;;;;;2.10;1.90;;;27.20;99.90;;;;;;5029067;28;20214;-74
2023/08/10 12:50:15;;;;;;;2.07;1.97;;;27.30;99.70;;;;;;5023790;28;20283;-75